Time;durP1;ratioP1;P1;durP2;ratioP2;P2;SDS_P1;SDS_P2;PMS_P1;PMS_P2;Temp;Humidity;BMP_temperature;BMP_pressure;BME280_temperature;BME280_humidity;BME280_pressure;Samples;Min_cycle;Max_cycle;Signal;HPM_P1;HPM_P2
2021/05/30 00:01:49;;;;;;;26.80;14.93;;;12.00;99.90;;;;;;5094619;28;20223;-77
2021/05/30 00:04:15;;;;;;;25.67;14.83;;;11.90;99.90;;;;;;5093490;28;20279;-76
2021/05/30 00:06:41;;;;;;;24.13;14.60;;;11.90;99.90;;;;;;5092888;28;20609;-77
2021/05/30 00:09:08;;;;;;;25.30;14.97;;;11.70;99.90;;;;;;5092638;28;20218;-77
2021/05/30 00:11:35;;;;;;;30.20;15.73;;;11.80;99.90;;;;;;5093705;28;20197;-76
2021/05/30 00:14:02;;;;;;;27.70;16.10;;;11.80;99.90;;;;;;5092731;28;20225;-77
2021/05/30 00:16:29;;;;;;;25.07;15.40;;;11.80;99.90;;;;;;5093703;28;20194;-77
2021/05/30 00:18:55;;;;;;;25.33;16.00;;;11.80;99.90;;;;;;5092618;28;20285;-77
2021/05/30 00:21:22;;;;;;;31.00;16.47;;;11.90;99.90;;;;;;5092764;28;20313;-77
2021/05/30 00:23:48;;;;;;;31.03;15.57;;;11.80;99.90;;;;;;5092627;28;20219;-76
2021/05/30 00:26:15;;;;;;;25.67;16.50;;;11.90;99.90;;;;;;5092546;28;20285;-77
2021/05/30 00:28:41;;;;;;;27.80;16.23;;;11.80;99.90;;;;;;5073590;28;20211;-78
2021/05/30 00:31:09;;;;;;;29.57;16.77;;;11.80;99.90;;;;;;5093949;28;20286;-77
2021/05/30 00:33:35;;;;;;;28.50;16.80;;;11.70;99.90;;;;;;5094730;28;20610;-78
2021/05/30 00:36:02;;;;;;;30.53;16.53;;;11.60;99.90;;;;;;5095564;28;20727;-77
2021/05/30 00:38:28;;;;;;;29.77;17.60;;;11.50;99.90;;;;;;5096770;28;20289;-77
2021/05/30 00:40:54;;;;;;;26.33;16.27;;;11.50;99.90;;;;;;5096370;28;20266;-78
2021/05/30 00:43:21;;;;;;;30.23;16.53;;;11.60;99.90;;;;;;5097688;28;20227;-77
2021/05/30 00:45:49;;;;;;;30.30;17.00;;;11.60;99.90;;;;;;5097022;28;20256;-77
2021/05/30 00:48:16;;;;;;;29.47;17.53;;;11.60;99.90;;;;;;5098550;28;20251;-77
2021/05/30 00:50:43;;;;;;;31.57;17.90;;;11.50;99.90;;;;;;5097159;28;20532;-78
2021/05/30 00:53:09;;;;;;;32.10;16.87;;;11.50;99.90;;;;;;5096199;28;20205;-77
2021/05/30 00:55:36;;;;;;;27.83;16.93;;;11.40;99.90;;;;;;5095591;28;20286;-77
2021/05/30 00:58:03;;;;;;;31.83;18.30;;;11.40;99.90;;;;;;5095543;28;20285;-78
2021/05/30 01:00:30;;;;;;;29.30;17.50;;;11.30;99.90;;;;;;5096229;28;20298;-77
2021/05/30 01:02:57;;;;;;;35.83;18.10;;;11.30;99.90;;;;;;5095493;28;20256;-77
2021/05/30 01:05:24;;;;;;;31.20;17.87;;;11.20;99.90;;;;;;5095636;28;20285;-76
2021/05/30 01:07:50;;;;;;;30.63;18.47;;;11.20;99.90;;;;;;5095989;28;20278;-77
2021/05/30 01:10:22;;;;;;;30.97;17.70;;;11.20;99.90;;;;;;5096284;28;20212;-78
2021/05/30 01:12:51;;;;;;;36.33;18.97;;;11.20;99.90;;;;;;5095867;28;20280;-77
2021/05/30 01:15:19;;;;;;;37.83;20.07;;;11.10;99.90;;;;;;5095167;28;20198;-77
2021/05/30 01:17:47;;;;;;;31.57;19.70;;;11.10;99.90;;;;;;5095643;28;20279;-77
2021/05/30 01:20:16;;;;;;;33.63;18.63;;;11.10;99.90;;;;;;5095483;28;20201;-79
2021/05/30 01:22:45;;;;;;;33.07;19.27;;;11.10;99.90;;;;;;5095871;28;20284;-77
2021/05/30 01:25:15;;;;;;;33.77;18.87;;;11.10;99.90;;;;;;5095818;28;20289;-77
2021/05/30 01:27:42;;;;;;;36.40;20.07;;;11.00;99.90;;;;;;5095522;28;20371;-77
2021/05/30 01:30:11;;;;;;;32.37;19.27;;;11.10;99.90;;;;;;5095372;28;20229;-79
2021/05/30 01:32:38;;;;;;;33.47;20.17;;;11.00;99.90;;;;;;5094771;28;20260;-77
2021/05/30 01:35:06;;;;;;;36.10;20.87;;;11.10;99.90;;;;;;5095443;28;20225;-76
2021/05/30 01:37:32;;;;;;;41.60;21.63;;;11.10;99.90;;;;;;5094858;28;20625;-79
2021/05/30 01:39:59;;;;;;;40.43;21.80;;;11.10;99.90;;;;;;5094784;28;20276;-77
2021/05/30 01:42:26;;;;;;;38.13;21.03;;;11.10;99.90;;;;;;5095043;28;20205;-78
2021/05/30 01:44:52;;;;;;;40.97;21.77;;;11.00;99.90;;;;;;5094687;28;20639;-77
2021/05/30 01:47:19;;;;;;;36.17;21.10;;;10.90;99.90;;;;;;5095491;28;20302;-77
2021/05/30 01:49:45;;;;;;;40.50;21.60;;;10.80;99.90;;;;;;5095057;28;20270;-80
2021/05/30 01:52:12;;;;;;;40.80;22.00;;;10.80;99.90;;;;;;5095308;28;20197;-78
2021/05/30 01:54:42;;;;;;;43.50;22.17;;;10.80;99.90;;;;;;5095214;28;20197;-78
2021/05/30 01:57:10;;;;;;;39.37;20.53;;;10.80;99.90;;;;;;5095119;28;20244;-77
2021/05/30 01:59:37;;;;;;;37.13;22.07;;;10.80;99.90;;;;;;5095023;28;20284;-78
2021/05/30 02:02:04;;;;;;;41.77;22.90;;;10.80;99.90;;;;;;5095111;28;20284;-77
2021/05/30 02:04:34;;;;;;;47.40;23.53;;;10.70;99.90;;;;;;5094847;28;20234;-79
2021/05/30 02:07:00;;;;;;;43.93;22.53;;;10.70;99.90;;;;;;5095065;28;20194;-77
2021/05/30 02:09:27;;;;;;;41.47;23.03;;;10.80;99.90;;;;;;5094586;28;20395;-80
2021/05/30 02:11:54;;;;;;;43.67;23.43;;;10.70;99.90;;;;;;5094687;28;20202;-77
2021/05/30 02:14:20;;;;;;;44.77;23.37;;;10.80;99.90;;;;;;5093868;28;20575;-78
2021/05/30 02:16:47;;;;;;;47.73;24.20;;;10.90;99.90;;;;;;5094974;28;20296;-80
2021/05/30 02:19:14;;;;;;;47.60;23.97;;;10.90;99.90;;;;;;5094234;28;20203;-77
2021/05/30 02:21:42;;;;;;;49.77;24.73;;;10.80;99.90;;;;;;5094666;28;20205;-78
2021/05/30 02:24:09;;;;;;;44.73;24.27;;;10.80;99.90;;;;;;5094537;28;20209;-76
2021/05/30 02:26:36;;;;;;;47.73;23.27;;;10.70;99.90;;;;;;5094123;28;20288;-77
2021/05/30 02:29:02;;;;;;;47.17;24.33;;;10.70;99.90;;;;;;5094233;28;20664;-78
2021/05/30 02:31:29;;;;;;;43.93;24.27;;;10.80;99.90;;;;;;5093864;28;20653;-78
2021/05/30 02:33:56;;;;;;;43.03;23.63;;;10.80;99.90;;;;;;5093935;28;20719;-78
2021/05/30 02:36:23;;;;;;;47.20;24.40;;;10.80;99.90;;;;;;5093777;28;20266;-76
2021/05/30 02:38:49;;;;;;;48.40;24.50;;;10.70;99.90;;;;;;5093868;28;20286;-77
2021/05/30 02:41:16;;;;;;;49.03;24.37;;;10.70;99.90;;;;;;5093841;28;20199;-76
2021/05/30 02:43:43;;;;;;;54.00;26.80;;;10.60;99.90;;;;;;5094204;28;20350;-80
2021/05/30 02:46:09;;;;;;;53.90;25.97;;;10.50;99.90;;;;;;5093686;28;20694;-77
2021/05/30 02:48:36;;;;;;;54.40;25.67;;;10.50;99.90;;;;;;5093526;28;20304;-80
2021/05/30 02:51:03;;;;;;;46.37;24.57;;;10.40;99.90;;;;;;5093948;28;20194;-78
2021/05/30 02:53:32;;;;;;;47.07;24.50;;;10.40;99.90;;;;;;5093740;28;20410;-78
2021/05/30 02:55:59;;;;;;;51.70;24.53;;;10.50;99.90;;;;;;5093802;28;20212;-80
2021/05/30 02:58:27;;;;;;;51.50;24.63;;;10.50;99.90;;;;;;5093010;28;20270;-77
2021/05/30 03:00:54;;;;;;;47.33;25.20;;;10.40;99.90;;;;;;5093381;28;20698;-77
2021/05/30 03:03:20;;;;;;;52.60;25.30;;;10.40;99.90;;;;;;5093327;28;20195;-77
2021/05/30 03:05:46;;;;;;;51.17;25.77;;;10.50;99.90;;;;;;5093703;28;20203;-77
2021/05/30 03:08:14;;;;;;;47.70;24.50;;;10.50;99.90;;;;;;5093858;28;20225;-78
2021/05/30 03:10:41;;;;;;;50.73;25.33;;;10.50;99.90;;;;;;5094495;28;20223;-77
2021/05/30 03:13:07;;;;;;;49.23;25.97;;;10.40;99.90;;;;;;5094191;28;20682;-77
2021/05/30 03:15:34;;;;;;;51.33;24.50;;;10.30;99.90;;;;;;5093226;28;20202;-79
2021/05/30 03:18:00;;;;;;;52.53;24.33;;;10.20;99.90;;;;;;5094204;28;20251;-77
2021/05/30 03:20:27;;;;;;;49.30;24.70;;;10.20;99.90;;;;;;5094603;28;20258;-79
2021/05/30 03:22:53;;;;;;;47.53;24.43;;;10.30;99.90;;;;;;5094091;28;20224;-78
2021/05/30 03:25:20;;;;;;;52.13;24.87;;;10.30;99.90;;;;;;5094306;28;20293;-77
2021/05/30 03:27:49;;;;;;;53.57;25.63;;;10.30;99.90;;;;;;5094088;28;20648;-80
2021/05/30 03:30:16;;;;;;;52.17;25.77;;;10.20;99.90;;;;;;5093702;28;20222;-78
2021/05/30 03:32:43;;;;;;;52.63;25.47;;;10.30;99.90;;;;;;5093914;28;20540;-78
2021/05/30 03:35:10;;;;;;;52.40;24.57;;;10.20;99.90;;;;;;5093312;28;20197;-78
2021/05/30 03:37:36;;;;;;;55.27;26.20;;;10.20;99.90;;;;;;5093350;28;20641;-77
2021/05/30 03:40:10;;;;;;;57.77;26.37;;;10.20;99.90;;;;;;5093159;28;20260;-77
2021/05/30 03:42:41;;;;;;;48.90;25.53;;;10.20;99.90;;;;;;5094095;28;20205;-78
2021/05/30 03:45:09;;;;;;;50.67;24.63;;;10.20;99.90;;;;;;5094929;28;20195;-78
2021/05/30 03:47:35;;;;;;;54.60;26.50;;;10.20;99.90;;;;;;5094140;28;20685;-78
2021/05/30 03:50:02;;;;;;;52.23;25.30;;;10.20;99.90;;;;;;5093020;28;20223;-80
2021/05/30 03:52:28;;;;;;;49.70;24.87;;;10.10;99.90;;;;;;5093972;28;20228;-78
2021/05/30 03:54:55;;;;;;;50.97;25.07;;;10.20;99.90;;;;;;5093576;28;20224;-77
2021/05/30 03:57:21;;;;;;;49.67;25.57;;;10.10;99.90;;;;;;5093137;28;20214;-77
2021/05/30 03:59:48;;;;;;;50.60;24.67;;;10.10;99.90;;;;;;5092879;28;20211;-77
2021/05/30 04:02:14;;;;;;;49.53;24.47;;;10.10;99.90;;;;;;5092787;28;20292;-78
2021/05/30 04:04:41;;;;;;;50.20;25.03;;;10.20;99.90;;;;;;5093486;28;20261;-79
2021/05/30 04:07:07;;;;;;;49.57;24.73;;;10.20;99.90;;;;;;5091730;28;20674;-78
2021/05/30 04:09:33;;;;;;;45.77;24.27;;;10.30;99.90;;;;;;5093332;28;20225;-78
2021/05/30 04:12:01;;;;;;;49.97;24.47;;;10.40;99.90;;;;;;5096853;28;20284;-78
2021/05/30 04:14:27;;;;;;;43.13;23.40;;;10.60;99.90;;;;;;5096608;28;20199;-78
2021/05/30 04:16:54;;;;;;;44.67;24.20;;;10.70;99.90;;;;;;5096703;28;20228;-79
2021/05/30 04:19:21;;;;;;;39.90;22.70;;;10.90;99.90;;;;;;5097024;28;20205;-77
2021/05/30 04:21:47;;;;;;;45.87;22.97;;;11.10;99.90;;;;;;5097006;28;20267;-78
2021/05/30 04:24:14;;;;;;;41.90;22.73;;;11.10;99.90;;;;;;5096967;28;20567;-79
2021/05/30 04:26:40;;;;;;;40.00;21.60;;;11.00;99.90;;;;;;5096098;28;20276;-79
2021/05/30 04:29:06;;;;;;;40.17;22.03;;;11.20;99.90;;;;;;5096655;28;20233;-78
2021/05/30 04:31:33;;;;;;;37.37;21.13;;;11.20;99.90;;;;;;5096290;28;20223;-78
2021/05/30 04:34:00;;;;;;;39.03;21.43;;;11.30;99.90;;;;;;5096201;28;20196;-76
2021/05/30 04:36:26;;;;;;;38.03;20.30;;;11.40;99.90;;;;;;5096279;28;20623;-78
2021/05/30 04:38:53;;;;;;;43.53;22.17;;;11.50;99.90;;;;;;5095180;28;20280;-77
2021/05/30 04:41:19;;;;;;;39.07;21.03;;;11.60;99.90;;;;;;5096731;28;20202;-78
2021/05/30 04:43:45;;;;;;;34.60;21.27;;;11.40;99.90;;;;;;5095909;28;20232;-78
2021/05/30 04:46:12;;;;;;;33.23;20.43;;;11.00;99.90;;;;;;5095986;28;20234;-78
2021/05/30 04:48:38;;;;;;;41.03;21.47;;;10.90;99.90;;;;;;5096147;28;20306;-78
2021/05/30 04:51:06;;;;;;;38.80;21.63;;;11.00;99.90;;;;;;5096007;28;20293;-77
2021/05/30 04:53:34;;;;;;;36.50;20.10;;;10.90;99.90;;;;;;5095911;28;20201;-78
2021/05/30 04:56:02;;;;;;;36.37;20.87;;;11.00;99.90;;;;;;5095269;28;20241;-77
2021/05/30 04:58:29;;;;;;;42.50;22.53;;;11.00;99.90;;;;;;5095676;28;20611;-79
2021/05/30 05:00:55;;;;;;;39.20;22.67;;;11.00;99.90;;;;;;5096220;28;20207;-77
2021/05/30 05:03:22;;;;;;;41.67;23.17;;;11.00;99.90;;;;;;5095972;28;20355;-77
2021/05/30 05:05:52;;;;;;;37.73;22.33;;;11.10;99.90;;;;;;5095495;28;20299;-77
2021/05/30 05:08:19;;;;;;;35.23;21.23;;;11.20;99.90;;;;;;5095267;28;20216;-78
2021/05/30 05:10:46;;;;;;;39.43;22.73;;;11.10;99.90;;;;;;5095743;28;20225;-77
2021/05/30 05:13:13;;;;;;;36.07;21.70;;;11.00;99.90;;;;;;5095398;28;20672;-77
2021/05/30 05:15:41;;;;;;;34.23;22.00;;;11.10;99.90;;;;;;5095321;28;20248;-80
2021/05/30 05:18:12;;;;;;;36.30;22.53;;;11.50;99.90;;;;;;5096048;28;20290;-80
2021/05/30 05:20:39;;;;;;;34.27;20.83;;;11.50;99.90;;;;;;5094992;28;20283;-81
2021/05/30 05:23:05;;;;;;;34.37;21.20;;;11.70;99.90;;;;;;5095490;28;20282;-77
2021/05/30 05:25:35;;;;;;;31.37;19.73;;;11.80;99.90;;;;;;5094996;28;20199;-77
2021/05/30 05:28:01;;;;;;;31.30;20.57;;;12.10;99.90;;;;;;5095611;28;20195;-78
2021/05/30 05:30:28;;;;;;;27.37;19.10;;;12.40;99.90;;;;;;5095352;28;20696;-78
2021/05/30 05:32:54;;;;;;;29.43;19.87;;;12.80;99.90;;;;;;5094536;28;20602;-80
2021/05/30 05:35:21;;;;;;;28.93;19.13;;;13.30;99.90;;;;;;5095500;28;20202;-79
2021/05/30 05:37:47;;;;;;;26.70;17.63;;;14.10;99.90;;;;;;5094265;28;20581;-80
2021/05/30 05:40:14;;;;;;;26.17;17.63;;;14.70;99.90;;;;;;5095095;28;20292;-79
2021/05/30 05:42:42;;;;;;;26.33;17.57;;;15.10;99.90;;;;;;5095208;28;20286;-78
2021/05/30 05:45:10;;;;;;;20.63;16.60;;;15.50;99.90;;;;;;5093758;28;20248;-81
2021/05/30 05:47:37;;;;;;;21.63;16.30;;;15.80;99.90;;;;;;5095115;28;20230;-78
2021/05/30 05:50:03;;;;;;;20.70;16.13;;;16.80;99.90;;;;;;5094587;28;20310;-80
2021/05/30 05:52:31;;;;;;;21.50;16.50;;;17.10;99.90;;;;;;5094769;28;20671;-77
2021/05/30 05:54:57;;;;;;;20.97;16.93;;;17.80;99.90;;;;;;5095624;28;20214;-78
2021/05/30 05:57:24;;;;;;;21.50;16.57;;;19.30;99.90;;;;;;5094325;28;20237;-78
2021/05/30 05:59:51;;;;;;;22.30;16.13;;;20.90;99.90;;;;;;5094321;28;20308;-80
2021/05/30 06:02:18;;;;;;;18.00;16.10;;;21.40;99.90;;;;;;5094416;28;20274;-78
2021/05/30 06:04:45;;;;;;;19.27;16.07;;;20.90;99.90;;;;;;5094423;28;20741;-77
2021/05/30 06:07:11;;;;;;;20.20;16.30;;;19.80;99.90;;;;;;5094061;28;20210;-80
2021/05/30 06:09:38;;;;;;;19.07;16.47;;;20.00;99.90;;;;;;5094061;28;20226;-79
2021/05/30 06:12:05;;;;;;;20.33;16.03;;;20.80;99.90;;;;;;5094748;28;20197;-79
2021/05/30 06:14:32;;;;;;;22.90;17.47;;;20.70;99.90;;;;;;5094163;28;20230;-80
2021/05/30 06:17:00;;;;;;;19.03;16.30;;;21.00;99.90;;;;;;5094371;28;20229;-79
2021/05/30 06:19:26;;;;;;;21.00;16.77;;;21.70;99.90;;;;;;5094667;28;20670;-80
2021/05/30 06:21:53;;;;;;;21.93;17.30;;;22.80;99.90;;;;;;5108160;28;20289;-78
2021/05/30 06:24:19;;;;;;;19.40;16.47;;;23.10;99.90;;;;;;5104261;28;20290;-80
2021/05/30 06:26:46;;;;;;;21.13;17.23;;;23.30;99.90;;;;;;5094047;28;20286;-77
2021/05/30 06:29:12;;;;;;;18.75;16.75;;;22.90;99.90;;;;;;5093861;28;20225;-77
2021/05/30 06:31:39;;;;;;;22.37;18.37;;;22.50;99.90;;;;;;5092983;28;20195;-77
2021/05/30 06:34:08;;;;;;;21.60;17.13;;;21.70;99.90;;;;;;5093401;28;20226;-77
2021/05/30 06:36:34;;;;;;;20.40;17.60;;;21.60;99.90;;;;;;5093039;28;20560;-79
2021/05/30 06:39:01;;;;;;;20.97;17.07;;;21.70;99.90;;;;;;5093534;28;20213;-78
2021/05/30 06:41:27;;;;;;;20.53;17.00;;;20.60;99.90;;;;;;5093565;28;20240;-79
2021/05/30 06:43:55;;;;;;;22.10;17.80;;;21.90;99.90;;;;;;5093123;28;20239;-79
2021/05/30 06:46:22;;;;;;;20.40;17.77;;;22.40;99.90;;;;;;5092749;28;20201;-77
2021/05/30 06:48:49;;;;;;;22.07;18.20;;;22.80;99.90;;;;;;5093326;28;20588;-80
2021/05/30 06:51:16;;;;;;;23.77;18.43;;;22.40;99.90;;;;;;5094142;28;20276;-79
2021/05/30 06:53:46;;;;;;;21.07;17.10;;;22.60;99.90;;;;;;5094094;28;20206;-78
2021/05/30 06:56:13;;;;;;;21.40;16.83;;;23.00;99.90;;;;;;5093620;28;20226;-76
2021/05/30 06:58:40;;;;;;;19.10;17.03;;;23.30;99.90;;;;;;5093934;28;20237;-77
2021/05/30 07:01:06;;;;;;;19.13;16.63;;;23.50;99.90;;;;;;5093375;28;20735;-79
2021/05/30 07:03:33;;;;;;;20.75;18.10;;;23.30;99.90;;;;;;5092928;28;20247;-78
2021/05/30 07:06:00;;;;;;;20.27;17.35;;;23.10;99.90;;;;;;5094377;28;20298;-77
2021/05/30 07:08:27;;;;;;;21.20;17.08;;;23.60;99.90;;;;;;5093399;28;20274;-78
2021/05/30 07:10:54;;;;;;;19.50;16.55;;;24.00;99.90;;;;;;5093197;28;20191;-79
2021/05/30 07:13:20;;;;;;;19.52;17.35;;;23.70;99.90;;;;;;5093324;28;20281;-77
2021/05/30 07:15:48;;;;;;;24.92;17.73;;;23.90;99.90;;;;;;5092262;28;20286;-77
2021/05/30 07:18:15;;;;;;;20.13;17.98;;;23.80;99.90;;;;;;5093362;28;20273;-78
2021/05/30 07:20:43;;;;;;;20.63;17.30;;;23.90;99.90;;;;;;5093406;28;20285;-77
2021/05/30 07:23:09;;;;;;;18.40;16.40;;;23.70;99.90;;;;;;5093345;28;20673;-77
2021/05/30 07:25:37;;;;;;;20.25;17.25;;;24.60;99.90;;;;;;5093235;28;20677;-78
2021/05/30 07:28:03;;;;;;;21.23;17.10;;;23.80;99.90;;;;;;5093454;28;20191;-78
2021/05/30 07:30:30;;;;;;;19.58;16.75;;;24.70;99.90;;;;;;5092902;28;20249;-78
2021/05/30 07:32:56;;;;;;;19.38;16.85;;;24.50;99.90;;;;;;5093164;28;20222;-78
2021/05/30 07:35:23;;;;;;;19.00;16.60;;;24.10;99.90;;;;;;5073700;28;20286;-77
2021/05/30 07:37:50;;;;;;;20.63;17.08;;;25.00;99.90;;;;;;5092709;28;20229;-78
2021/05/30 07:40:17;;;;;;;20.25;17.63;;;25.00;99.90;;;;;;5092983;28;20206;-77
2021/05/30 07:42:46;;;;;;;18.30;16.50;;;24.10;99.90;;;;;;5093217;28;20203;-77
2021/05/30 07:45:14;;;;;;;23.88;17.63;;;24.70;99.90;;;;;;5092965;28;20194;-78
2021/05/30 07:47:41;;;;;;;20.42;17.20;;;24.70;99.90;;;;;;5092655;28;20251;-78
2021/05/30 07:50:09;;;;;;;19.25;17.17;;;24.90;99.90;;;;;;5092401;28;20301;-77
2021/05/30 07:52:35;;;;;;;20.23;16.52;;;25.20;99.90;;;;;;5091651;28;20297;-77
2021/05/30 07:55:03;;;;;;;20.33;16.73;;;25.20;99.90;;;;;;5091672;28;20277;-78
2021/05/30 07:57:30;;;;;;;18.42;16.42;;;25.50;99.90;;;;;;5092390;28;20282;-77
2021/05/30 07:59:57;;;;;;;18.85;16.85;;;25.40;99.90;;;;;;5091030;28;20198;-77
2021/05/30 08:02:23;;;;;;;19.33;16.27;;;25.30;99.90;;;;;;5091929;28;20282;-78
2021/05/30 08:04:52;;;;;;;20.83;16.80;;;25.70;99.90;;;;;;5091717;28;20195;-77
2021/05/30 08:07:19;;;;;;;17.50;15.50;;;26.00;99.90;;;;;;5091678;28;20191;-77
2021/05/30 08:09:45;;;;;;;24.40;15.52;;;25.60;99.90;;;;;;5092560;28;20309;-77
2021/05/30 08:12:13;;;;;;;17.20;15.30;;;25.80;99.90;;;;;;5091537;28;20286;-79
2021/05/30 08:14:39;;;;;;;16.67;14.90;;;26.80;99.90;;;;;;5091866;28;20546;-78
2021/05/30 08:17:07;;;;;;;18.23;16.15;;;27.40;99.90;;;;;;5093039;28;20252;-78
2021/05/30 08:19:34;;;;;;;18.80;16.85;;;27.20;99.90;;;;;;5092764;28;20628;-77
2021/05/30 08:22:00;;;;;;;17.15;15.35;;;27.80;99.90;;;;;;5092481;28;20324;-77
2021/05/30 08:24:27;;;;;;;23.20;17.45;;;28.30;99.90;;;;;;5092924;28;20232;-77
2021/05/30 08:26:55;;;;;;;18.50;15.35;;;28.40;99.90;;;;;;5092459;28;20282;-76
2021/05/30 08:29:24;;;;;;;17.75;15.93;;;28.40;99.90;;;;;;5091644;28;20811;-77
2021/05/30 08:31:51;;;;;;;16.77;14.88;;;28.10;99.90;;;;;;5093085;28;20244;-76
2021/05/30 08:34:19;;;;;;;17.70;15.48;;;28.30;99.90;;;;;;5092508;28;20226;-75
2021/05/30 08:36:45;;;;;;;19.17;15.10;;;28.80;99.90;;;;;;5092804;28;20231;-77
2021/05/30 08:39:11;;;;;;;17.20;14.30;;;27.90;99.90;;;;;;5092739;28;20285;-76
2021/05/30 08:41:39;;;;;;;17.38;15.10;;;27.90;99.90;;;;;;5092734;28;20225;-77
2021/05/30 08:44:05;;;;;;;18.60;15.70;;;27.90;99.90;;;;;;5092355;28;20199;-76
2021/05/30 08:46:32;;;;;;;17.80;15.95;;;26.70;99.90;;;;;;5092654;28;20285;-76
2021/05/30 08:49:01;;;;;;;18.02;15.23;;;27.90;99.90;;;;;;5092573;28;20264;-75
2021/05/30 08:51:29;;;;;;;24.98;16.60;;;27.50;99.90;;;;;;5093036;28;20195;-76
2021/05/30 08:53:55;;;;;;;17.05;15.25;;;26.10;99.90;;;;;;5097814;28;20195;-77
2021/05/30 08:56:22;;;;;;;17.73;15.05;;;27.70;99.90;;;;;;5104289;28;20202;-78
2021/05/30 08:58:51;;;;;;;19.85;15.98;;;27.50;99.90;;;;;;5107762;28;20565;-78
2021/05/30 09:01:19;;;;;;;19.95;14.73;;;27.20;99.90;;;;;;5113873;28;20191;-76
2021/05/30 09:04:02;;;;;;;18.98;14.82;;;26.00;99.90;;;;;;5101699;28;20206;-76
2021/05/30 09:06:30;;;;;;;16.60;13.68;;;25.70;99.90;;;;;;5100897;28;20199;-78
2021/05/30 09:08:56;;;;;;;16.38;13.80;;;25.80;99.90;;;;;;5106759;28;20295;-76
2021/05/30 09:11:44;;;;;;;16.13;13.50;;;25.80;99.90;;;;;;5105954;28;20270;-77
2021/05/30 09:14:15;;;;;;;17.17;14.13;;;26.10;99.90;;;;;;5107280;28;20709;-76
2021/05/30 09:16:57;;;;;;;15.23;12.77;;;27.10;99.90;;;;;;5106027;28;20217;-76
2021/05/30 09:19:30;;;;;;;14.93;13.30;;;26.70;99.90;;;;;;5102871;28;20195;-75
2021/05/30 09:22:24;;;;;;;17.60;14.20;;;25.70;99.90;;;;;;5102534;28;20221;-79
2021/05/30 09:25:15;;;;;;;13.05;11.68;;;26.80;99.90;;;;;;5107930;28;20282;-77
2021/05/30 09:27:50;;;;;;;13.50;12.10;;;28.20;99.90;;;;;;5102031;28;20207;-77
2021/05/30 09:30:38;;;;;;;16.67;13.27;;;27.70;99.90;;;;;;5108704;28;20245;-75
2021/05/30 09:33:12;;;;;;;16.27;13.00;;;27.50;99.90;;;;;;5108664;28;20203;-77
2021/05/30 09:35:53;;;;;;;16.48;13.65;;;27.50;99.90;;;;;;5103243;28;20195;-78
2021/05/30 09:38:23;;;;;;;13.75;11.18;;;25.70;99.90;;;;;;5103445;28;20668;-79
2021/05/30 09:40:52;;;;;;;14.90;11.52;;;25.50;99.90;;;;;;5105145;28;20226;-77
2021/05/30 09:43:21;;;;;;;14.00;12.50;;;25.60;99.90;;;;;;5097194;28;20206;-75
2021/05/30 09:46:06;;;;;;;14.88;12.48;;;24.70;99.90;;;;;;5106778;28;20736;-76
2021/05/30 09:48:34;;;;;;;15.55;13.05;;;23.10;99.90;;;;;;5102410;28;20297;-76
2021/05/30 09:51:21;;;;;;;16.15;12.60;;;23.40;99.90;;;;;;5100237;28;20199;-77
2021/05/30 09:53:58;;;;;;;14.98;12.57;;;24.60;99.90;;;;;;5101710;28;20242;-76
2021/05/30 09:56:27;;;;;;;14.98;11.63;;;25.90;99.90;;;;;;5098254;28;20214;-74
2021/05/30 09:58:54;;;;;;;19.58;11.18;;;25.00;99.90;;;;;;5099944;28;20598;-77
2021/05/30 10:01:21;;;;;;;12.80;10.45;;;25.10;99.90;;;;;;5101286;28;20692;-77
2021/05/30 10:03:47;;;;;;;11.75;10.10;;;25.00;99.90;;;;;;5098565;28;20233;-78
2021/05/30 10:06:14;;;;;;;11.80;9.52;;;25.20;99.90;;;;;;5102363;28;20277;-77
2021/05/30 10:08:41;;;;;;;12.10;9.43;;;26.10;99.90;;;;;;5101638;28;20225;-76
2021/05/30 10:11:08;;;;;;;12.05;8.70;;;25.30;99.90;;;;;;5103998;28;20277;-78
2021/05/30 10:13:34;;;;;;;13.20;9.80;;;24.90;99.90;;;;;;5101696;28;20704;-76
2021/05/30 10:16:01;;;;;;;11.65;8.85;;;24.50;99.90;;;;;;5096786;28;20218;-76
2021/05/30 10:18:30;;;;;;;12.57;9.75;;;24.80;99.90;;;;;;5101949;28;20654;-74
2021/05/30 10:20:57;;;;;;;10.57;9.50;;;25.20;99.90;;;;;;5097763;28;20235;-76
2021/05/30 10:23:24;;;;;;;10.07;7.80;;;25.40;99.90;;;;;;5103023;28;20195;-76
2021/05/30 10:25:50;;;;;;;10.15;8.65;;;25.40;99.90;;;;;;5096753;28;20242;-76
2021/05/30 10:28:20;;;;;;;11.15;9.52;;;26.10;99.90;;;;;;5080723;28;20276;-76
2021/05/30 10:30:48;;;;;;;10.75;9.52;;;26.30;99.90;;;;;;5091492;28;20211;-76
2021/05/30 10:33:17;;;;;;;11.63;10.43;;;26.20;99.90;;;;;;5093872;28;20295;-76
2021/05/30 10:35:47;;;;;;;12.35;9.25;;;26.10;99.90;;;;;;5096883;28;20191;-76
2021/05/30 10:38:39;;;;;;;14.35;9.05;;;26.50;99.90;;;;;;5101834;28;20662;-78
2021/05/30 10:41:15;;;;;;;11.52;9.32;;;26.50;99.90;;;;;;5098000;28;20655;-77
2021/05/30 10:43:43;;;;;;;10.50;9.45;;;26.70;99.90;;;;;;5095682;28;20289;-76
2021/05/30 10:46:10;;;;;;;13.55;10.70;;;27.30;99.90;;;;;;5091569;28;20241;-76
2021/05/30 10:48:38;;;;;;;11.85;9.98;;;26.90;99.90;;;;;;5094466;28;20234;-76
2021/05/30 10:51:15;;;;;;;14.30;9.93;;;25.60;99.90;;;;;;5093057;28;20223;-76
2021/05/30 10:53:43;;;;;;;10.48;8.30;;;24.70;99.90;;;;;;5092394;28;20232;-78
2021/05/30 10:56:33;;;;;;;8.63;7.50;;;25.20;99.90;;;;;;5092924;28;20625;-75
2021/05/30 10:59:36;;;;;;;7.43;6.47;;;25.80;99.90;;;;;;5091275;28;20199;-76
2021/05/30 11:02:05;;;;;;;6.53;5.93;;;25.20;99.90;;;;;;5091761;28;20696;-76
2021/05/30 11:04:33;;;;;;;7.00;6.30;;;25.70;99.90;;;;;;5093513;28;20191;-77
2021/05/30 11:07:03;;;;;;;6.53;5.53;;;25.00;99.90;;;;;;5093695;28;20222;-77
2021/05/30 11:10:09;;;;;;;7.95;6.38;;;24.70;99.90;;;;;;5100307;28;20206;-77
2021/05/30 11:12:51;;;;;;;9.25;6.50;;;25.60;99.90;;;;;;5090936;28;20195;-76
2021/05/30 11:15:33;;;;;;;7.88;6.65;;;26.30;99.90;;;;;;5092698;28;20194;-78
2021/05/30 11:18:01;;;;;;;9.27;7.10;;;26.10;99.90;;;;;;5096696;28;20202;-77
2021/05/30 11:20:40;;;;;;;9.65;7.07;;;26.10;99.90;;;;;;5094606;28;20206;-77
2021/05/30 11:23:10;;;;;;;6.47;5.50;;;26.30;99.90;;;;;;5073440;28;20199;-75
2021/05/30 11:25:39;;;;;;;6.03;5.00;;;26.90;99.90;;;;;;5090879;28;20198;-77
2021/05/30 11:28:07;;;;;;;9.68;5.90;;;27.00;99.90;;;;;;5091274;28;20202;-76
2021/05/30 11:30:43;;;;;;;8.13;6.30;;;27.50;99.90;;;;;;5091555;28;20309;-76
2021/05/30 11:33:12;;;;;;;7.15;5.88;;;27.40;99.90;;;;;;5091626;28;20265;-76
2021/05/30 11:35:39;;;;;;;7.03;5.97;;;26.50;99.90;;;;;;5092031;28;20222;-76
2021/05/30 11:38:06;;;;;;;9.13;5.53;;;26.00;99.90;;;;;;5093270;28;20274;-77
2021/05/30 11:40:35;;;;;;;5.15;4.63;;;26.10;99.90;;;;;;5104155;28;20202;-76
2021/05/30 11:43:12;;;;;;;5.05;4.55;;;25.60;99.90;;;;;;5102562;28;20191;-77
2021/05/30 11:45:41;;;;;;;5.60;4.18;;;25.90;99.90;;;;;;5092854;28;20194;-77
2021/05/30 11:48:10;;;;;;;6.88;3.70;;;26.90;99.90;;;;;;5091297;28;20220;-76
2021/05/30 11:50:38;;;;;;;4.22;3.83;;;27.80;99.90;;;;;;5098076;28;20238;-78
2021/05/30 11:53:25;;;;;;;5.63;3.35;;;27.80;99.90;;;;;;5100353;28;20271;-76
2021/05/30 11:55:52;;;;;;;4.88;3.50;;;27.20;99.90;;;;;;5114335;28;20690;-78
2021/05/30 11:58:19;;;;;;;5.53;3.90;;;26.90;99.90;;;;;;5095681;28;20202;-79
2021/05/30 12:00:46;;;;;;;5.63;3.58;;;27.40;99.90;;;;;;5095591;28;20203;-82
2021/05/30 12:03:14;;;;;;;4.03;3.63;;;27.70;99.90;;;;;;5095859;28;20216;-79
2021/05/30 12:05:40;;;;;;;4.70;4.05;;;27.70;99.90;;;;;;5099729;28;20343;-78
2021/05/30 12:08:18;;;;;;;4.45;4.05;;;27.30;99.60;;;;;;5098547;28;20195;-78
2021/05/30 12:10:49;;;;;;;6.40;3.97;;;26.70;99.20;;;;;;5099225;28;20210;-80
2021/05/30 12:13:26;;;;;;;5.90;4.28;;;26.30;99.90;;;;;;5102092;28;20198;-78
2021/05/30 17:41:28;;;;;;;4.37;3.10;;;21.90;99.90;;;;;;5087124;27;20576;-75
2021/05/30 17:43:55;;;;;;;5.03;2.60;;;21.90;99.90;;;;;;5070167;28;20275;-76
2021/05/30 17:46:21;;;;;;;4.55;2.40;;;22.00;99.90;;;;;;5070152;28;20232;-75
2021/05/30 17:48:47;;;;;;;4.97;3.00;;;22.10;99.90;;;;;;5068909;28;20669;-74
2021/05/30 17:51:14;;;;;;;6.32;2.85;;;22.10;99.90;;;;;;5069793;28;20191;-75
2021/05/30 17:53:40;;;;;;;5.72;2.83;;;22.20;99.90;;;;;;5069299;28;20290;-75
2021/05/30 17:56:08;;;;;;;3.42;2.60;;;22.30;99.90;;;;;;5072023;28;20742;-77
2021/05/30 17:58:36;;;;;;;4.00;2.92;;;22.20;99.90;;;;;;5068781;28;20235;-78
2021/05/30 18:01:04;;;;;;;3.00;2.70;;;22.20;99.90;;;;;;5069332;28;20243;-76
2021/05/30 18:03:31;;;;;;;4.78;2.83;;;22.20;99.90;;;;;;5070438;28;20269;-75